East York, Pennsylvania
Current Conditions -  °F | °C
As of 12:53 PM on Saturday 25 Oct 2014 (Local Time) from KTHV Reporting Station
Clear Clear  
Wind Chill: 67°   Ceiling: Unl
Heat Index: 67°   Visibility: 10mi
Dew Point: 43°   Wind: 8mph
Humidity: 42%   Direction: 240°WSW
Pressure: 29.84"   Gusts: NA
Location:  39.9768°N, 76.6853°W
Report Text: KTHV 251653Z AUTO 24007KT 210V270 10SM CLR 19/06 A2984 RMK AO2 SLP107 T01940061
Loading
Personal Weather Stations






























Interactive Weather Map
Tropical Storm Tracking
New forecast layout! Learn more

10-Day Weather Forecast

Advertisements
Track Severe Weather on mobile